createdAt,value
2022-10-21T00:00:50.899Z,11.70
2022-10-21T00:03:21.022Z,11.80
2022-10-21T00:05:49.647Z,11.70
2022-10-21T00:08:18.254Z,11.70
2022-10-21T00:10:46.919Z,11.70
2022-10-21T00:13:14.851Z,11.70
2022-10-21T00:15:42.783Z,11.70
2022-10-21T00:18:10.797Z,11.70
2022-10-21T00:20:42.395Z,11.70
2022-10-21T00:23:10.324Z,11.70
2022-10-21T00:25:39.657Z,11.60
2022-10-21T00:28:07.596Z,11.60
2022-10-21T00:30:35.558Z,11.60
2022-10-21T00:33:03.588Z,11.60
2022-10-21T00:35:34.685Z,11.60
2022-10-21T00:38:04.004Z,11.60
2022-10-21T00:40:32.318Z,11.60
2022-10-21T00:43:00.770Z,11.60
2022-10-21T00:45:30.437Z,11.60
2022-10-21T00:48:03.951Z,11.60
2022-10-21T00:50:37.584Z,11.60
2022-10-21T00:53:15.122Z,11.70
2022-10-21T00:55:51.590Z,11.60
2022-10-21T00:58:22.109Z,11.60
2022-10-21T01:00:51.053Z,11.60
2022-10-21T01:03:19.045Z,11.60
2022-10-21T01:05:47.148Z,11.50
2022-10-21T01:08:16.513Z,11.50
2022-10-21T01:10:44.431Z,11.50
2022-10-21T01:13:24.806Z,11.50
2022-10-21T01:15:57.533Z,11.50
2022-10-21T01:18:31.734Z,11.50
2022-10-21T01:21:16.360Z,11.50
2022-10-21T01:24:17.061Z,11.50
2022-10-21T01:27:17.637Z,11.40
2022-10-21T01:30:18.366Z,11.40
2022-10-21T01:33:18.917Z,11.30
2022-10-21T01:35:52.953Z,11.20
2022-10-21T01:38:26.733Z,11.20
2022-10-21T01:40:59.183Z,11.20
2022-10-21T01:43:35.916Z,11.20
2022-10-21T01:46:07.742Z,11.10
2022-10-21T01:48:41.929Z,11.10
2022-10-21T01:51:13.089Z,11.10
2022-10-21T01:53:46.040Z,11.10
2022-10-21T01:56:16.643Z,11.10
2022-10-21T01:58:47.332Z,11.00
2022-10-21T02:01:16.834Z,11.00
2022-10-21T02:03:48.178Z,11.00
2022-10-21T02:06:18.120Z,10.90
2022-10-21T02:08:46.411Z,10.90
2022-10-21T02:11:15.189Z,10.80
2022-10-21T02:13:47.523Z,10.80
2022-10-21T02:16:20.011Z,10.80
2022-10-21T02:18:47.953Z,10.80
2022-10-21T02:21:21.268Z,10.80
2022-10-21T02:23:54.498Z,10.80
2022-10-21T02:26:23.093Z,10.80
2022-10-21T02:28:51.809Z,10.80
2022-10-21T02:31:35.819Z,10.80
2022-10-21T02:34:14.437Z,10.80
2022-10-21T02:36:52.555Z,10.80
2022-10-21T02:39:27.842Z,10.90
2022-10-21T02:41:58.895Z,10.80
2022-10-21T02:44:27.156Z,10.80
2022-10-21T02:46:55.029Z,10.90
2022-10-21T02:49:22.894Z,10.90
2022-10-21T02:51:52.196Z,10.90
2022-10-21T02:54:20.083Z,10.90
2022-10-21T02:56:48.050Z,10.90
2022-10-21T02:59:15.957Z,10.90
2022-10-21T03:01:43.889Z,10.90
2022-10-21T03:04:11.909Z,10.90
2022-10-21T03:06:39.824Z,10.90
2022-10-21T03:09:09.043Z,10.90
2022-10-21T03:11:36.940Z,10.90
2022-10-21T03:14:04.857Z,10.80
2022-10-21T03:16:32.769Z,10.70
2022-10-21T03:19:00.675Z,10.70
2022-10-21T03:21:28.581Z,10.70
2022-10-21T03:23:56.525Z,10.60
2022-10-21T03:26:25.854Z,10.60
2022-10-21T03:28:53.716Z,10.60
2022-10-21T03:31:21.611Z,10.50
2022-10-21T03:33:49.519Z,10.50
2022-10-21T03:36:17.459Z,10.40
2022-10-21T03:38:45.330Z,10.40
2022-10-21T03:41:13.204Z,10.40
2022-10-21T03:43:42.429Z,10.40
2022-10-21T03:46:10.365Z,10.30
2022-10-21T03:48:38.270Z,10.20
2022-10-21T03:51:07.242Z,10.20
2022-10-21T03:53:43.330Z,10.20
2022-10-21T03:56:11.622Z,10.10
2022-10-21T03:58:39.566Z,10.10
2022-10-21T04:01:12.790Z,10.00
2022-10-21T04:03:40.988Z,9.90
2022-10-21T04:06:08.970Z,9.90
2022-10-21T04:08:36.950Z,9.90
2022-10-21T04:11:05.005Z,9.90
2022-10-21T04:13:32.979Z,9.90
2022-10-21T04:16:02.027Z,9.90
2022-10-21T04:18:31.355Z,9.90
2022-10-21T04:20:59.752Z,9.90
2022-10-21T04:23:27.751Z,10.00
2022-10-21T04:25:55.618Z,9.90
2022-10-21T04:28:23.596Z,9.80
2022-10-21T04:30:51.587Z,9.70
2022-10-21T04:33:19.529Z,9.60
2022-10-21T04:35:48.739Z,9.60
2022-10-21T04:38:16.793Z,9.60
2022-10-21T04:40:44.718Z,9.60
2022-10-21T04:43:12.594Z,9.60
2022-10-21T04:45:40.949Z,9.50
2022-10-21T04:48:08.906Z,9.40
2022-10-21T04:50:36.811Z,9.40
2022-10-21T04:53:06.107Z,9.40
2022-10-21T04:55:34.015Z,9.30
2022-10-21T04:58:01.892Z,9.30
2022-10-21T05:00:29.785Z,9.30
2022-10-21T05:02:57.689Z,9.30
2022-10-21T05:05:25.611Z,9.30
2022-10-21T05:07:53.487Z,9.20
2022-10-21T05:10:23.849Z,9.20
2022-10-21T05:12:51.754Z,9.10
2022-10-21T05:15:19.675Z,9.10
2022-10-21T05:17:47.590Z,9.10
2022-10-21T05:20:15.664Z,9.10
2022-10-21T05:22:43.622Z,9.00
2022-10-21T05:25:11.837Z,9.00
2022-10-21T05:27:41.142Z,9.00
2022-10-21T05:30:10.540Z,9.00
2022-10-21T05:32:38.855Z,9.00
2022-10-21T05:35:07.664Z,9.00
2022-10-21T05:37:35.709Z,9.00
2022-10-21T05:40:04.326Z,9.00
2022-10-21T05:42:32.284Z,9.10
2022-10-21T05:45:01.607Z,9.00
2022-10-21T05:47:29.462Z,9.00
2022-10-21T05:49:57.390Z,8.90
2022-10-21T05:52:25.348Z,9.00
2022-10-21T05:54:53.257Z,9.00
2022-10-21T05:57:21.298Z,9.10
2022-10-21T05:59:49.157Z,9.20
2022-10-21T06:02:18.615Z,9.30
2022-10-21T06:04:46.524Z,9.40
2022-10-21T06:07:14.425Z,9.40
2022-10-21T06:09:42.406Z,9.40
2022-10-21T06:12:10.308Z,9.30
2022-10-21T06:14:38.173Z,9.30
2022-10-21T06:17:06.118Z,9.20
2022-10-21T06:19:35.387Z,9.20
2022-10-21T06:22:03.281Z,9.20
2022-10-21T06:24:31.251Z,9.20
2022-10-21T06:26:59.108Z,9.20
2022-10-21T06:29:27.542Z,9.20
2022-10-21T06:31:55.465Z,9.30
2022-10-21T06:34:23.451Z,9.40
2022-10-21T06:36:52.702Z,9.50
2022-10-21T06:39:20.599Z,9.60
2022-10-21T06:41:48.474Z,9.70
2022-10-21T06:44:16.330Z,9.80
2022-10-21T06:46:44.187Z,9.90
2022-10-21T06:49:12.068Z,10.00
2022-10-21T06:51:39.962Z,10.10
2022-10-21T06:54:09.213Z,10.10
2022-10-21T06:56:37.090Z,10.10
2022-10-21T06:59:04.964Z,10.00
2022-10-21T07:01:48.105Z,10.00
2022-10-21T07:04:21.964Z,10.00
2022-10-21T07:06:50.067Z,10.00
2022-10-21T07:09:19.368Z,10.10
2022-10-21T07:11:47.305Z,10.20
2022-10-21T07:14:15.177Z,10.30
2022-10-21T07:16:43.067Z,10.30
2022-10-21T07:19:11.898Z,10.40
2022-10-21T07:21:39.972Z,10.50
2022-10-21T07:24:07.875Z,10.50
2022-10-21T07:26:37.166Z,10.50
2022-10-21T07:29:05.918Z,10.50
2022-10-21T07:31:36.795Z,10.70
2022-10-21T07:34:06.540Z,10.60
2022-10-21T07:36:36.548Z,10.70
2022-10-21T07:39:07.546Z,10.70
2022-10-21T07:41:39.214Z,10.80
2022-10-21T07:44:07.824Z,10.90
2022-10-21T07:46:35.923Z,10.90
2022-10-21T07:49:03.963Z,11.00
2022-10-21T07:51:32.227Z,11.00
2022-10-21T07:54:01.562Z,11.00
2022-10-21T07:56:31.873Z,11.10
2022-10-21T07:59:02.436Z,11.10
2022-10-21T08:01:30.569Z,11.00
2022-10-21T08:03:59.341Z,11.00
2022-10-21T08:06:28.838Z,11.10
2022-10-21T08:08:57.352Z,11.00
2022-10-21T08:11:26.781Z,11.00
2022-10-21T08:13:54.963Z,11.10
2022-10-21T08:16:24.891Z,11.10
2022-10-21T08:18:52.804Z,11.10
2022-10-21T08:21:21.526Z,11.10
2022-10-21T08:23:49.468Z,11.10
2022-10-21T08:26:17.685Z,11.10
2022-10-21T08:28:46.413Z,11.10
2022-10-21T08:31:16.870Z,11.20
2022-10-21T08:33:46.514Z,11.20
2022-10-21T08:36:16.284Z,11.20
2022-10-21T08:38:44.638Z,11.20
2022-10-21T08:41:32.465Z,11.20
2022-10-21T08:44:04.916Z,11.20
2022-10-21T08:46:36.707Z,11.20
2022-10-21T08:49:12.874Z,11.20
2022-10-21T08:51:44.562Z,11.20
2022-10-21T08:54:18.126Z,11.20
2022-10-21T08:56:47.998Z,11.20
2022-10-21T08:59:21.357Z,11.30
2022-10-21T09:01:57.767Z,11.30
2022-10-21T09:04:36.076Z,11.30
2022-10-21T09:07:09.877Z,11.30
2022-10-21T09:09:45.038Z,11.30
2022-10-21T09:12:21.417Z,11.30
2022-10-21T09:15:18.276Z,11.30
2022-10-21T09:18:05.018Z,11.30
2022-10-21T09:20:46.315Z,11.30
2022-10-21T09:23:49.441Z,11.40
2022-10-21T09:26:34.512Z,11.40
2022-10-21T09:29:13.958Z,11.40
2022-10-21T09:31:42.487Z,11.50
2022-10-21T09:34:20.450Z,11.50
2022-10-21T09:36:53.149Z,11.60
2022-10-21T09:39:34.944Z,11.60
2022-10-21T09:42:07.352Z,11.60
2022-10-21T09:44:41.639Z,11.50
2022-10-21T09:47:21.324Z,11.50
2022-10-21T09:50:07.002Z,11.60
2022-10-21T09:52:38.295Z,11.60
2022-10-21T09:55:07.340Z,11.60
2022-10-21T09:57:49.483Z,11.70
2022-10-21T10:00:17.462Z,11.60
2022-10-21T10:02:47.013Z,11.70
2022-10-21T10:05:38.344Z,11.60
2022-10-21T10:08:29.890Z,11.60
2022-10-21T10:11:11.788Z,11.60
2022-10-21T10:13:42.693Z,11.60
2022-10-21T10:16:32.397Z,11.60
2022-10-21T10:19:17.436Z,11.50
2022-10-21T10:21:46.022Z,11.50
2022-10-21T10:24:20.013Z,11.50
2022-10-21T10:26:48.607Z,11.60
2022-10-21T10:29:26.379Z,11.70
2022-10-21T10:31:57.315Z,11.60
2022-10-21T10:34:30.714Z,11.70
2022-10-21T10:37:04.126Z,11.60
2022-10-21T10:39:37.087Z,11.70
2022-10-21T10:42:05.512Z,11.70
2022-10-21T10:44:38.243Z,11.70
2022-10-21T10:47:08.963Z,11.70
2022-10-21T10:49:39.727Z,11.70
2022-10-21T10:52:21.278Z,11.80
2022-10-21T10:55:05.654Z,11.80
2022-10-21T10:57:44.175Z,11.90
2022-10-21T11:00:19.151Z,12.00
2022-10-21T11:02:54.977Z,12.00
2022-10-21T11:05:28.592Z,12.00
2022-10-21T11:08:00.322Z,12.00
2022-10-21T11:10:34.803Z,12.00
2022-10-21T11:13:05.333Z,12.10
2022-10-21T11:15:47.936Z,12.10
2022-10-21T11:18:24.329Z,12.10
2022-10-21T11:21:05.964Z,12.20
2022-10-21T11:23:49.694Z,12.20
2022-10-21T11:26:30.725Z,12.30
2022-10-21T11:29:09.183Z,12.30
2022-10-21T11:31:53.874Z,12.30
2022-10-21T11:34:41.120Z,12.40
2022-10-21T11:37:20.610Z,12.40
2022-10-21T11:39:59.869Z,12.40
2022-10-21T11:42:34.213Z,12.30
2022-10-21T11:45:21.406Z,12.30
2022-10-21T11:47:56.915Z,12.30
2022-10-21T11:50:32.976Z,12.30
2022-10-21T11:53:19.721Z,12.30
2022-10-21T11:55:55.127Z,12.20
2022-10-21T11:58:37.736Z,12.20
2022-10-21T12:01:16.029Z,12.30
2022-10-21T12:04:04.003Z,12.20
2022-10-21T12:06:38.455Z,12.30
2022-10-21T12:09:13.103Z,12.30
2022-10-21T12:11:45.588Z,12.30
2022-10-21T12:14:30.897Z,12.30
2022-10-21T12:17:04.286Z,12.30
2022-10-21T12:19:32.948Z,12.30
2022-10-21T12:22:01.399Z,12.30
2022-10-21T12:24:44.380Z,12.40
2022-10-21T12:27:21.565Z,12.40
2022-10-21T12:29:59.949Z,12.50
2022-10-21T12:32:34.004Z,12.50
2022-10-21T12:35:02.636Z,12.50
2022-10-21T12:37:44.696Z,12.50
2022-10-21T12:40:17.378Z,12.60
2022-10-21T12:42:49.050Z,12.70
2022-10-21T12:45:29.765Z,12.80
2022-10-21T12:47:59.077Z,12.90
2022-10-21T12:50:30.015Z,12.90
2022-10-21T12:53:18.351Z,12.90
2022-10-21T12:55:51.040Z,13.00
2022-10-21T12:58:27.958Z,13.00
2022-10-21T13:00:59.536Z,13.10
2022-10-21T13:03:50.287Z,13.10
2022-10-21T13:06:21.017Z,13.20
2022-10-21T13:08:54.442Z,13.20
2022-10-21T13:11:39.764Z,13.20
2022-10-21T13:14:36.118Z,13.20
2022-10-21T13:17:34.000Z,13.30
2022-10-21T13:20:39.672Z,13.50
2022-10-21T13:23:32.925Z,13.70
2022-10-21T13:26:25.848Z,13.80
2022-10-21T13:29:03.714Z,13.90
2022-10-21T13:31:31.767Z,14.00
2022-10-21T13:34:01.570Z,14.10
2022-10-21T13:36:39.558Z,14.10
2022-10-21T13:39:23.597Z,14.10
2022-10-21T13:42:03.162Z,14.10
2022-10-21T13:44:36.115Z,14.10
2022-10-21T13:47:28.091Z,14.00
2022-10-21T13:50:01.926Z,14.00
2022-10-21T13:52:30.443Z,14.00
2022-10-21T13:54:59.341Z,14.00
2022-10-21T13:57:30.741Z,14.00
2022-10-21T14:00:03.171Z,14.10
2022-10-21T14:02:31.567Z,14.10
2022-10-21T14:05:01.148Z,14.20
2022-10-21T14:07:29.742Z,14.20
2022-10-21T14:09:59.595Z,14.20
2022-10-21T14:12:32.624Z,14.20
2022-10-21T14:15:09.942Z,14.30
2022-10-21T14:17:42.738Z,14.20
2022-10-21T14:20:17.214Z,14.30
2022-10-21T14:22:51.274Z,14.40
2022-10-21T14:25:19.915Z,14.60
2022-10-21T14:27:48.879Z,14.70
2022-10-21T14:30:20.102Z,14.80
2022-10-21T14:32:48.976Z,14.80
2022-10-21T14:35:27.640Z,14.70
2022-10-21T14:37:57.974Z,14.60
2022-10-21T14:40:31.919Z,14.60
2022-10-21T14:43:01.986Z,14.50
2022-10-21T14:45:32.393Z,14.50
2022-10-21T14:48:09.112Z,14.50
2022-10-21T14:50:39.793Z,14.50
2022-10-21T14:53:16.557Z,14.50
2022-10-21T14:55:45.644Z,14.50
2022-10-21T15:00:57.110Z,14.50
2022-10-21T15:03:39.352Z,14.50
2022-10-21T15:06:14.645Z,14.50
2022-10-21T15:08:45.121Z,14.50
2022-10-21T15:11:23.264Z,14.50
2022-10-21T15:14:06.098Z,14.40
2022-10-21T15:19:09.347Z,14.40
2022-10-21T15:21:46.290Z,14.40
2022-10-21T15:24:19.912Z,14.40
2022-10-21T15:26:49.205Z,14.30
2022-10-21T15:29:26.040Z,14.30
2022-10-21T15:31:54.151Z,14.20
2022-10-21T15:34:22.412Z,14.20
2022-10-21T15:36:51.803Z,14.20
2022-10-21T15:39:20.148Z,14.10
2022-10-21T15:41:50.067Z,14.00
2022-10-21T15:44:21.791Z,14.00
2022-10-21T15:46:57.407Z,13.90
2022-10-21T15:49:27.424Z,13.90
2022-10-21T15:51:56.678Z,13.90
2022-10-21T15:54:24.667Z,13.80
2022-10-21T15:56:56.228Z,13.80
2022-10-21T15:59:28.628Z,13.70
2022-10-21T16:01:57.540Z,13.70
2022-10-21T16:04:25.987Z,13.70
2022-10-21T16:06:56.010Z,13.70
2022-10-21T16:09:26.742Z,13.70
2022-10-21T16:12:01.046Z,13.70
2022-10-21T16:14:31.080Z,13.60
2022-10-21T16:17:00.252Z,13.60
2022-10-21T16:19:29.108Z,13.50
2022-10-21T16:21:58.600Z,13.40
2022-10-21T16:24:26.472Z,13.40
2022-10-21T16:26:54.391Z,13.40
2022-10-21T16:29:24.716Z,13.30
2022-10-21T16:31:53.125Z,13.20
2022-10-21T16:34:21.285Z,13.10
2022-10-21T16:36:49.480Z,13.10
2022-10-21T16:39:22.270Z,13.00
2022-10-21T16:41:50.254Z,12.90
2022-10-21T16:44:18.623Z,12.90
2022-10-21T16:46:51.492Z,12.80
2022-10-21T16:49:23.091Z,12.70
2022-10-21T16:51:52.791Z,12.70
2022-10-21T16:54:23.823Z,12.60
2022-10-21T16:56:54.833Z,12.60
2022-10-21T16:59:23.863Z,12.50
2022-10-21T17:01:52.046Z,12.50
2022-10-21T17:04:19.946Z,12.50
2022-10-21T17:06:47.949Z,12.50
2022-10-21T17:09:15.928Z,12.60
2022-10-21T17:11:45.392Z,12.70
2022-10-21T17:14:16.241Z,12.70
2022-10-21T17:16:45.268Z,12.70
2022-10-21T17:19:13.303Z,12.80
2022-10-21T17:21:41.334Z,12.80
2022-10-21T17:24:13.361Z,12.90
2022-10-21T17:26:42.454Z,13.00
2022-10-21T17:29:12.451Z,13.10
2022-10-21T17:31:42.304Z,13.20
2022-10-21T17:34:28.180Z,13.20
2022-10-21T17:36:56.115Z,13.20
2022-10-21T17:39:24.076Z,13.30
2022-10-21T17:41:52.092Z,13.30
2022-10-21T17:44:21.527Z,13.30
2022-10-21T17:46:51.886Z,13.30
2022-10-21T17:49:19.767Z,13.30
2022-10-21T17:51:49.162Z,13.20
2022-10-21T17:54:17.281Z,13.20
2022-10-21T17:56:45.246Z,13.10
2022-10-21T17:59:13.558Z,13.10
2022-10-21T18:01:43.012Z,13.00
2022-10-21T18:04:12.215Z,12.90
2022-10-21T18:06:40.715Z,12.90
2022-10-21T18:09:09.429Z,12.90
2022-10-21T18:11:38.028Z,12.80
2022-10-21T18:14:05.993Z,12.80
2022-10-21T18:16:34.864Z,12.80
2022-10-21T18:19:04.142Z,12.70
2022-10-21T18:21:32.102Z,12.70
2022-10-21T18:24:00.003Z,12.70
2022-10-21T18:26:30.675Z,12.70
2022-10-21T18:29:01.128Z,12.70
2022-10-21T18:31:31.355Z,12.60
2022-10-21T18:34:01.096Z,12.60
2022-10-21T18:36:31.091Z,12.60
2022-10-21T18:38:59.633Z,12.60
2022-10-21T18:41:28.733Z,12.60
2022-10-21T18:44:00.239Z,12.60
2022-10-21T18:46:28.441Z,12.60
2022-10-21T18:48:56.382Z,12.50
2022-10-21T18:51:25.186Z,12.40
2022-10-21T18:53:54.473Z,12.40
2022-10-21T18:56:24.117Z,12.30
2022-10-21T18:58:53.015Z,12.30
2022-10-21T19:01:22.412Z,12.20
2022-10-21T19:03:53.930Z,12.20
2022-10-21T19:06:32.180Z,12.10
2022-10-21T19:09:02.195Z,12.10
2022-10-21T19:11:30.969Z,12.10
2022-10-21T19:13:59.100Z,12.00
2022-10-21T19:16:27.106Z,11.90
2022-10-21T19:18:55.497Z,11.90
2022-10-21T19:21:24.392Z,11.90
2022-10-21T19:23:52.734Z,11.90
2022-10-21T19:26:24.113Z,11.90
2022-10-21T19:28:52.354Z,11.90
2022-10-21T19:31:21.309Z,11.90
2022-10-21T19:33:49.358Z,11.90
2022-10-21T19:36:17.329Z,11.90
2022-10-21T19:38:45.349Z,11.80
2022-10-21T19:41:15.939Z,11.80
2022-10-21T19:43:45.218Z,11.70
2022-10-21T19:46:19.939Z,11.60
2022-10-21T19:48:50.482Z,11.60
2022-10-21T19:51:20.487Z,11.60
2022-10-21T19:53:49.431Z,11.60
2022-10-21T19:56:20.919Z,11.60
2022-10-21T19:58:53.582Z,11.70
2022-10-21T20:01:24.457Z,11.70
2022-10-21T20:03:53.863Z,11.70
2022-10-21T20:06:24.074Z,11.70
2022-10-21T20:08:54.160Z,11.70
2022-10-21T20:11:23.698Z,11.70
2022-10-21T20:13:53.325Z,11.70
2022-10-21T20:16:23.512Z,11.70
2022-10-21T20:18:52.064Z,11.80
2022-10-21T20:21:20.417Z,11.90
2022-10-21T20:23:48.267Z,11.90
2022-10-21T20:26:16.198Z,11.90
2022-10-21T20:28:44.131Z,11.90
2022-10-21T20:31:15.326Z,11.90
2022-10-21T20:33:44.895Z,11.90
2022-10-21T20:36:15.673Z,11.90
2022-10-21T20:38:44.377Z,11.80
2022-10-21T20:41:14.361Z,11.80
2022-10-21T20:43:43.727Z,11.80
2022-10-21T20:46:14.740Z,11.80
2022-10-21T20:48:44.139Z,11.80
2022-10-21T20:51:14.334Z,11.80
2022-10-21T20:53:45.766Z,11.90
2022-10-21T20:56:13.949Z,11.90
2022-10-21T20:58:42.420Z,11.90
2022-10-21T21:01:11.458Z,11.80
2022-10-21T21:03:42.742Z,11.80
2022-10-21T21:06:12.202Z,11.70
2022-10-21T21:08:48.891Z,11.60
2022-10-21T21:11:22.106Z,11.60
2022-10-21T21:13:50.125Z,11.60
2022-10-21T21:16:20.604Z,11.60
2022-10-21T21:18:54.486Z,11.60
2022-10-21T21:21:23.852Z,11.70
2022-10-21T21:23:52.155Z,11.70
2022-10-21T21:26:23.032Z,11.70
2022-10-21T21:28:51.775Z,11.60
2022-10-21T21:31:20.960Z,11.50
2022-10-21T21:33:49.066Z,11.50
2022-10-21T21:36:20.317Z,11.50
2022-10-21T21:38:48.910Z,11.50
2022-10-21T21:41:16.935Z,11.50
2022-10-21T21:43:46.565Z,11.50
2022-10-21T21:46:22.593Z,11.50
2022-10-21T21:48:53.903Z,11.50
2022-10-21T21:51:25.674Z,11.50
2022-10-21T21:53:53.643Z,11.50
2022-10-21T21:56:23.670Z,11.50
2022-10-21T21:58:54.588Z,11.50
2022-10-21T22:01:25.364Z,11.50
2022-10-21T22:03:54.120Z,11.50
2022-10-21T22:08:54.675Z,11.50
2022-10-21T22:11:25.636Z,11.60
2022-10-21T22:13:53.730Z,11.60
2022-10-21T22:16:24.402Z,11.50
2022-10-21T22:18:52.772Z,11.50
2022-10-21T22:21:21.212Z,11.50
2022-10-21T22:23:51.180Z,11.50
2022-10-21T22:26:21.412Z,11.50
2022-10-21T22:28:49.329Z,11.60
2022-10-21T22:31:19.049Z,11.60
2022-10-21T22:33:47.378Z,11.50
2022-10-21T22:36:16.532Z,11.50
2022-10-21T22:38:44.795Z,11.60
2022-10-21T22:41:14.178Z,11.60
2022-10-21T22:43:42.873Z,11.70
2022-10-21T22:48:58.967Z,11.70
2022-10-21T22:51:27.104Z,11.70
2022-10-21T22:53:56.541Z,11.70
2022-10-21T22:56:26.817Z,11.60
2022-10-21T22:58:55.075Z,11.60
2022-10-21T23:01:24.048Z,11.60
2022-10-21T23:03:52.784Z,11.60
2022-10-21T23:06:20.736Z,11.70
2022-10-21T23:08:48.680Z,11.70
2022-10-21T23:11:16.687Z,11.70
2022-10-21T23:13:56.325Z,11.70
2022-10-21T23:16:30.859Z,11.80
2022-10-21T23:18:58.817Z,11.80
2022-10-21T23:21:26.756Z,11.80
2022-10-21T23:23:54.680Z,11.80
2022-10-21T23:26:22.591Z,11.80
2022-10-21T23:28:52.032Z,11.80
2022-10-21T23:31:20.754Z,11.90
2022-10-21T23:33:48.706Z,11.90
2022-10-21T23:36:16.645Z,11.90
2022-10-21T23:38:44.571Z,11.90
2022-10-21T23:41:12.464Z,11.90
2022-10-21T23:43:40.389Z,11.90
2022-10-21T23:46:09.656Z,11.90
2022-10-21T23:48:37.613Z,12.00
2022-10-21T23:51:06.004Z,12.00
2022-10-21T23:53:33.955Z,12.00
2022-10-21T23:56:01.853Z,12.00
2022-10-21T23:58:29.774Z,12.00
